Dilbeek, Belgium
Current Conditions -  °F | °C
As of 3:50 PM on Wednesday 22 Oct 2014 (Local Time) from EBBR Reporting Station
Scattered Clouds Scattered Clouds  
Wind Chill: 12°   Ceiling: Unl
Heat Index: 12°   Visibility: 6mi
Dew Point:   Wind: 16mph
Humidity: 67%   Direction: 300°WNW
Pressure: 30.18"   Gusts: NA
Location:  50.85°N, 4.26°E
Report Text: EBBR 221350Z 30014KT 9999 SCT032 12/06 Q1022 NOSIG
Loading
Personal Weather Stations






























Interactive Weather Map
Tropical Storm Tracking
New forecast layout! Learn more

10-Day Weather Forecast

Advertisements
Track Severe Weather on mobile